Nantes Atlantique Airport

LFRS · Loira Atlantica, Paesi della Loira, Francia

Storia di METAR LFRS · Aeroporto di Nantes-Atlantique

Di seguito sono riportati i METAR degli ultimi giorni. Seleziona un anno per sfogliare i METAR più vecchi, dall'anno 2007 in poi.

24 luglio 2024

Tempo Codice Tempo meteorologico Temp. Vista Base nuvolosa Vento METAR/SPECI
17:00
V
24 °C 10 km+ - 290° 290° 5 kt METAR LFRS 241500Z AUTO 29005KT 240V350 9999 SCT041 24/15 Q1020 NOSIG
16:30
V
24 °C 10 km+ - 060° 060° 5 kt METAR LFRS 241430Z AUTO 06005KT 020V110 9999 SCT040 24/15 Q1020 BECMG 30010KT
16:00
V
24 °C 10 km+ 3.900 ft Var Var 3 kt METAR LFRS 241400Z AUTO VRB03KT 9999 BKN039 24/15 Q1020 NOSIG
15:30
V
23 °C 10 km+ 3.900 ft 340° 340° 3 kt METAR LFRS 241330Z AUTO 34003KT 230V030 9999 BKN039 23/14 Q1021 NOSIG
15:00
V
23 °C 10 km+ 3.700 ft 310° 310° 5 kt METAR LFRS 241300Z AUTO 31005KT 270V360 9999 BKN037 23/15 Q1021 NOSIG
14:30
V
23 °C 10 km+ 3.600 ft 020° 020° 5 kt METAR LFRS 241230Z AUTO 02005KT 290V100 9999 BKN036 23/14 Q1021 NOSIG
14:00
V
23 °C 10 km+ 3.600 ft 360° 360° 5 kt METAR LFRS 241200Z AUTO 36005KT 310V070 9999 BKN036 23/15 Q1021 NOSIG
13:30
V
23 °C 10 km+ - Var Var 4 kt METAR LFRS 241130Z AUTO VRB04KT 9999 SCT035 23/15 Q1022 NOSIG
13:00
V
22 °C 10 km+ 3.400 ft 350° 350° 4 kt METAR LFRS 241100Z AUTO 35004KT 310V070 9999 BKN034 22/14 Q1022 NOSIG
12:30
V
21 °C 10 km+ 3.300 ft Var Var 4 kt METAR LFRS 241030Z AUTO VRB04KT 9999 BKN033 21/13 Q1022 NOSIG
12:00
V
21 °C 10 km+ 3.700 ft 040° 040° 4 kt METAR LFRS 241000Z AUTO 04004KT 350V090 9999 FEW029 OVC037 21/14 Q1022 NOSIG
11:30
V
21 °C 10 km+ 3.700 ft 020° 020° 3 kt METAR LFRS 240930Z AUTO 02003KT 330V080 9999 OVC037 21/15 Q1022 NOSIG
11:00
V
20 °C 10 km+ 3.700 ft 360° 360° 3 kt METAR LFRS 240900Z AUTO 36003KT 280V050 9999 OVC037 20/14 Q1022 NOSIG
10:30
V
19 °C 10 km+ 3.700 ft 020° 020° 4 kt METAR LFRS 240830Z AUTO 02004KT 320V080 9999 OVC037 19/14 Q1022 NOSIG
10:00
V
18 °C 10 km+ 3.700 ft 040° 040° 4 kt METAR LFRS 240800Z AUTO 04004KT 350V080 9999 OVC037 18/14 Q1023 NOSIG
09:30
V
18 °C 10 km+ 3.700 ft 040° 040° 5 kt METAR LFRS 240730Z AUTO 04005KT 360V070 9999 OVC037 18/14 Q1022 NOSIG
09:00
V
17 °C 10 km+ 3.700 ft 030° 030° 3 kt METAR LFRS 240700Z AUTO 03003KT 330V080 9999 OVC037 17/13 Q1022 NOSIG
08:30
V
16 °C 10 km+ 3.700 ft 040° 040° 4 kt METAR LFRS 240630Z AUTO 04004KT 340V080 9999 OVC037 16/13 Q1022 NOSIG
08:00
V
16 °C 10 km+ 3.700 ft 030° 030° 3 kt METAR LFRS 240600Z AUTO 03003KT 340V080 9999 BKN037 16/13 Q1022 NOSIG
07:30
V
16 °C 10 km+ 3.600 ft 030° 030° 4 kt METAR LFRS 240530Z AUTO 03004KT 360V070 9999 OVC036 16/13 Q1022 NOSIG
07:00
V
16 °C 10 km+ 3.600 ft 030° 030° 4 kt METAR LFRS 240500Z AUTO 03004KT 350V060 9999 OVC036 16/13 Q1022 NOSIG
06:30
V
16 °C 10 km+ 3.600 ft 030° 030° 3 kt METAR LFRS 240430Z AUTO 03003KT 350V060 9999 OVC036 16/13 Q1022 NOSIG
06:00
V
16 °C 10 km+ 3.600 ft 030° 030° 5 kt METAR LFRS 240400Z AUTO 03005KT 320V100 9999 OVC036 16/12 Q1022 NOSIG
05:30
V
16 °C 10 km+ 3.500 ft 040° 040° 4 kt METAR LFRS 240330Z AUTO 04004KT 010V080 9999 OVC035 16/12 Q1022 NOSIG
05:00
V
16 °C 10 km+ 3.300 ft 040° 040° 4 kt METAR LFRS 240300Z AUTO 04004KT 010V080 9999 OVC033 16/12 Q1022 NOSIG
04:30
V
15 °C 10 km+ 3.300 ft 030° 030° 3 kt METAR LFRS 240230Z AUTO 03003KT 350V060 9999 BKN033 15/13 Q1022 NOSIG
04:00
V
15 °C 10 km+ - Var Var 3 kt METAR LFRS 240200Z AUTO VRB03KT 9999 FEW032 15/12 Q1023 NOSIG
03:30
V
16 °C 10 km+ - 040° 040° 4 kt METAR LFRS 240130Z AUTO 04004KT 010V080 CAVOK 16/12 Q1023 NOSIG
03:00
V
16 °C 10 km+ - 040° 040° 3 kt METAR LFRS 240100Z AUTO 04003KT 010V070 9999 FEW033 16/12 Q1023 NOSIG
02:30
V
16 °C 10 km+ - 030° 030° 3 kt METAR LFRS 240030Z AUTO 03003KT 340V080 9999 FEW034 16/13 Q1023 NOSIG
02:00
V
17 °C 10 km+ 3.400 ft 030° 030° 6 kt METAR LFRS 240000Z AUTO 03006KT 360V070 9999 BKN034 17/13 Q1023 NOSIG
01:30
V
17 °C 10 km+ 3.500 ft 030° 030° 5 kt METAR LFRS 232330Z AUTO 03005KT 350V070 9999 OVC035 17/13 Q1023 NOSIG
01:00
V
16 °C 10 km+ 3.500 ft 030° 030° 6 kt METAR LFRS 232300Z AUTO 03006KT 350V060 9999 BKN035 16/13 Q1023 NOSIG
00:30
V
15 °C 10 km+ - Var Var 1 kt METAR LFRS 232230Z AUTO VRB01KT 9999 FEW036 15/14 Q1023 NOSIG
00:00
V
16 °C 10 km+ - 270° 270° 1 kt METAR LFRS 232200Z AUTO 27001KT 9999 FEW038 16/14 Q1023 NOSIG

23 luglio 2024

Tempo Codice Tempo meteorologico Temp. Vista Base nuvolosa Vento METAR/SPECI
23:30
V
16 °C 10 km+ 3.800 ft 290° 290° 3 kt METAR LFRS 232130Z AUTO 29003KT 9999 FEW029 BKN038 16/14 Q1023 NOSIG
23:00
M
16 °C 10 km+ 3.000 ft 240° 240° 3 kt METAR LFRS 232100Z AUTO 24003KT 9999 BKN030 16/14 Q1023 NOSIG
22:30
V
17 °C 10 km+ - 250° 250° 2 kt METAR LFRS 232030Z AUTO 25002KT 9999 FEW030 17/14 Q1023 NOSIG
22:00
V
18 °C 10 km+ - 230° 230° 4 kt METAR LFRS 232000Z AUTO 23004KT CAVOK 18/14 Q1022 NOSIG
21:30
V
19 °C 10 km+ - 250° 250° 4 kt METAR LFRS 231930Z AUTO 25004KT CAVOK 19/15 Q1022 NOSIG
21:00
V
20 °C 10 km+ - 260° 260° 7 kt METAR LFRS 231900Z AUTO 26007KT CAVOK 20/15 Q1022 NOSIG
20:30
V
21 °C 10 km+ - 250° 250° 6 kt METAR LFRS 231830Z AUTO 25006KT CAVOK 21/15 Q1022 NOSIG
20:00
V
22 °C 10 km+ - 250° 250° 7 kt METAR LFRS 231800Z AUTO 25007KT 220V290 CAVOK 22/15 Q1022 NOSIG
19:30
V
22 °C 10 km+ - 250° 250° 7 kt METAR LFRS 231730Z AUTO 25007KT CAVOK 22/15 Q1022 NOSIG
19:00
V
23 °C 10 km+ - 260° 260° 9 kt METAR LFRS 231700Z AUTO 26009KT CAVOK 23/15 Q1022 NOSIG
18:30
V
23 °C 10 km+ - 270° 270° 9 kt METAR LFRS 231630Z AUTO 27009KT 240V310 9999 FEW028 23/16 Q1022 NOSIG
18:00
V
23 °C 10 km+ - 250° 250° 10 kt METAR LFRS 231600Z AUTO 25010KT 220V300 9999 SCT028 23/17 Q1022 NOSIG
17:30
V
24 °C 10 km+ - 250° 250° 10 kt METAR LFRS 231530Z AUTO 25010KT 220V280 9999 SCT025 24/17 Q1022 NOSIG
17:00
M
23 °C 10 km+ 2.600 ft 260° 260° 11 kt METAR LFRS 231500Z AUTO 26011KT 220V290 9999 BKN026 BKN032 23/17 Q1022 NOSIG
16:30
M
23 °C 10 km+ 2.500 ft 280° 280° 10 kt METAR LFRS 231430Z AUTO 28010KT 260V320 9999 BKN025 OVC034 23/18 Q1022 NOSIG
16:00
M
23 °C 10 km+ 2.300 ft 280° 280° 10 kt METAR LFRS 231400Z AUTO 28010KT 9999 BKN023 BKN028 OVC040 23/18 Q1023 NOSIG
15:30
M
23 °C 10 km+ 2.200 ft 280° 280° 10 kt METAR LFRS 231330Z AUTO 28010KT 9999 BKN022 OVC029 23/17 Q1023 NOSIG
15:00
M
22 °C 10 km+ 2.100 ft 270° 270° 9 kt METAR LFRS 231300Z AUTO 27009KT 9999 BKN021 BKN026 OVC031 22/18 Q1023 NOSIG
14:30
M
22 °C 10 km+ 1.900 ft 280° 280° 8 kt METAR LFRS 231230Z AUTO 28008KT 240V300 9999 BKN019 OVC026 22/18 Q1022 NOSIG
14:00
M
21 °C 10 km+ 1.500 ft 290° 290° 7 kt METAR LFRS 231200Z AUTO 29007KT 250V340 9999 BKN015 OVC021 21/19 Q1022 NOSIG
13:30
M
22 °C 10 km+ 1.600 ft 260° 260° 8 kt METAR LFRS 231130Z AUTO 26008KT 9999 BKN016 BKN021 OVC028 22/20 Q1022 NOSIG
13:00
M
21 °C 10 km+ 1.400 ft 280° 280° 6 kt METAR LFRS 231100Z AUTO 28006KT 250V310 9999 BKN014 BKN019 OVC028 21/19 Q1022 BECMG BKN020
12:30
M
20 °C 10 km+ 1.500 ft 260° 260° 7 kt METAR LFRS 231030Z AUTO 26007KT 230V290 9999 SCT008 BKN015 OVC022 20/19 Q1022 NOSIG
12:00
I
20 °C 1,6 km 900 ft 260° 260° 7 kt METAR LFRS 231000Z AUTO 26007KT 9999 1600 BKN009 OVC014 20/18 Q1022 BECMG BKN020
11:30
I
20 °C 10 km+ 700 ft 250° 250° 7 kt METAR LFRS 230930Z AUTO 25007KT 220V280 9999 BKN007 BKN013 OVC031 20/19 Q1022 BECMG BKN020
11:00
I
19 °C 3,1 km 600 ft 270° 270° 7 kt METAR LFRS 230900Z AUTO 27007KT 3100 -DZ BR BKN006 OVC013 19/19 Q1022 BECMG 9999 NSW BKN020
10:30
I
19 °C 5 km 600 ft 240° 240° 7 kt METAR LFRS 230830Z AUTO 24007KT 210V270 5000 -DZ BR BKN006 OVC026 19/18 Q1022 BECMG BKN020
10:00
I
19 °C 4,6 km 500 ft 250° 250° 6 kt METAR LFRS 230800Z AUTO 25006KT 220V280 4600 -DZ BR OVC005 19/18 Q1022 BECMG 9999 NSW BKN020
09:30
L
19 °C 5 km 400 ft 250° 250° 7 kt METAR LFRS 230730Z AUTO 25007KT 220V280 5000 -DZ BR OVC004 19/18 Q1022 BECMG BKN020
09:00
I
19 °C 7 km 500 ft 250° 250° 7 kt METAR LFRS 230700Z AUTO 25007KT 7000 OVC005 19/18 Q1022 BECMG DZ
08:30
L
19 °C 5 km 400 ft 240° 240° 7 kt METAR LFRS 230630Z AUTO 24007KT 200V270 5000 BR OVC004 19/18 Q1022 TEMPO OVC007 BECMG DZ
08:00
L
18 °C 9 km 400 ft 250° 250° 7 kt METAR LFRS 230600Z AUTO 25007KT 9000 OVC004 18/18 Q1021 TEMPO 2000 DZ OVC007
07:30
L
18 °C 2,9 km 300 ft 250° 250° 7 kt METAR LFRS 230530Z AUTO 25007KT 210V270 2900 BR OVC003 18/18 Q1021 TEMPO 8000 OVC007
07:00
L
18 °C 2,7 km 300 ft 250° 250° 8 kt METAR LFRS 230500Z AUTO 25008KT 2700 BR OVC003 18/18 Q1021 TEMPO DZ
06:30
L
19 °C 3,7 km 300 ft 250° 250° 7 kt METAR LFRS 230430Z AUTO 25007KT 210V270 3700 BR OVC003 19/18 Q1021 TEMPO 2000 DZ
06:00
L
18 °C 3,7 km 300 ft 240° 240° 7 kt METAR LFRS 230400Z AUTO 24007KT 200V260 3700 BR OVC003 18/18 Q1021 TEMPO 2000 DZ
05:30
L
18 °C 4 km 400 ft 240° 240° 7 kt METAR LFRS 230330Z AUTO 24007KT 4000 BR OVC004 18/18 Q1021 TEMPO 2000 DZ
05:00
I
18 °C 3,7 km 500 ft 230° 230° 8 kt METAR LFRS 230300Z AUTO 23008KT 200V260 3700 BR OVC005 18/18 Q1021 TEMPO 2000 DZ
04:30
I
18 °C 5 km 500 ft 230° 230° 8 kt METAR LFRS 230230Z AUTO 23008KT 5000 BR OVC005 18/18 Q1021 TEMPO 2000 DZ
04:00
L
18 °C 5 km 400 ft 220° 220° 8 kt METAR LFRS 230200Z AUTO 22008KT 190V260 5000 BR OVC004 18/18 Q1021 TEMPO 2000 DZ
03:30
L
18 °C 7 km 400 ft 230° 230° 7 kt METAR LFRS 230130Z AUTO 23007KT 180V260 7000 OVC004 18/18 Q1021 TEMPO 2000 DZ
03:00
L
18 °C 6 km 300 ft 220° 220° 7 kt METAR LFRS 230100Z AUTO 22007KT 180V260 6000 OVC003 18/18 Q1022 TEMPO 2000 DZ
02:30
L
18 °C 3,9 km 300 ft 210° 210° 7 kt METAR LFRS 230030Z AUTO 21007KT 3900 BR OVC003 18/18 Q1022 TEMPO 2000 DZ
02:00
L
18 °C 3,6 km 400 ft 210° 210° 7 kt METAR LFRS 230000Z AUTO 21007KT 3600 BR OVC004 18/18 Q1022 TEMPO 2000 DZ
01:30
I
18 °C 6 km 600 ft 220° 220° 6 kt METAR LFRS 222330Z AUTO 22006KT 6000 OVC006 18/18 Q1022 TEMPO 2000 DZ OVC002
01:00
I
18 °C 10 km+ 700 ft 220° 220° 6 kt METAR LFRS 222300Z AUTO 22006KT 9999 OVC007 18/17 Q1022 TEMPO 4000 -RADZ
00:30
I
18 °C 10 km+ 700 ft 220° 220° 5 kt METAR LFRS 222230Z AUTO 22005KT 9999 OVC007 18/18 Q1022 TEMPO 4000 -RADZ
00:00
I
18 °C 10 km+ 600 ft 220° 220° 5 kt METAR LFRS 222200Z AUTO 22005KT 180V260 9999 OVC006 18/17 Q1022 TEMPO 4000 -RADZ

22 luglio 2024

Tempo Codice Tempo meteorologico Temp. Vista Base nuvolosa Vento METAR/SPECI
23:30
I
18 °C 10 km+ 600 ft 210° 210° 6 kt METAR LFRS 222130Z AUTO 21006KT 9999 OVC006 18/18 Q1022 TEMPO 4000 -RADZ
23:00
I
18 °C 10 km+ 700 ft 210° 210° 6 kt METAR LFRS 222100Z AUTO 21006KT 9999 BKN007 OVC011 18/18 Q1022 TEMPO 4000 -RADZ
22:30
I
19 °C 10 km+ 600 ft 240° 240° 6 kt METAR LFRS 222030Z AUTO 24006KT 9999 BKN006 OVC010 19/18 Q1022 TEMPO 4000 -RADZ
22:00
I
19 °C 10 km+ 800 ft 240° 240° 7 kt METAR LFRS 222000Z AUTO 24007KT 9999 OVC008 19/17 Q1022 TEMPO 4000 -RADZ
21:30
I
19 °C 4,6 km 1.000 ft 250° 250° 9 kt METAR LFRS 221930Z AUTO 25009KT 220V280 9999 4600 OVC010 19/17 Q1022 TEMPO 4000 -RADZ
21:00
M
19 °C 10 km+ 1.200 ft 230° 230° 6 kt METAR LFRS 221900Z AUTO 23006KT 9999 OVC012 19/17 Q1022 TEMPO 4000 -RADZ BKN006
20:30
M
19 °C 10 km+ 1.200 ft 250° 250° 8 kt METAR LFRS 221830Z AUTO 25008KT 220V280 9999 OVC012 19/17 Q1022 TEMPO 4000 -RADZ BKN006
20:00
M
19 °C 10 km+ 1.100 ft 250° 250° 8 kt METAR LFRS 221800Z AUTO 25008KT 9999 BKN011 OVC017 19/17 Q1022 TEMPO 4000 -RADZ BKN006
19:30
I
19 °C 10 km+ 900 ft 230° 230° 7 kt METAR LFRS 221730Z AUTO 23007KT 9999 BKN009 OVC015 19/17 Q1022 TEMPO 4000 -RADZ
19:00
M
19 °C 10 km+ 1.100 ft 250° 250° 8 kt METAR LFRS 221700Z AUTO 25008KT 220V280 9999 BKN011 OVC019 19/17 Q1022 NOSIG
18:30
M
20 °C 10 km+ 1.500 ft 250° 250° 10 kt METAR LFRS 221630Z AUTO 25010KT 9999 OVC015 20/17 Q1022 BECMG BKN012
18:00
M
20 °C 10 km+ 1.600 ft 240° 240° 10 kt METAR LFRS 221600Z AUTO 24010KT 210V280 9999 OVC016 20/16 Q1022 TEMPO BKN013
17:30
M
20 °C 10 km+ 1.700 ft 240° 240° 10 kt METAR LFRS 221530Z AUTO 24010KT 210V270 9999 BKN017 BKN023 OVC036 20/16 Q1022 TEMPO BKN013
17:00
M
20 °C 10 km+ 1.600 ft 230° 230° 10 kt METAR LFRS 221500Z AUTO 23010KT 200V260 9999 OVC016 20/17 Q1022 TEMPO BKN013
16:30
M
20 °C 10 km+ 1.700 ft 240° 240° 10 kt METAR LFRS 221430Z AUTO 24010KT 210V270 9999 BKN017 OVC023 20/16 Q1022 TEMPO BKN013
16:00
M
20 °C 10 km+ 1.900 ft 250° 250° 10 kt METAR LFRS 221400Z AUTO 25010KT 9999 BKN019 OVC026 20/17 Q1022 TEMPO BKN013
15:30
M
21 °C 10 km+ 2.800 ft 240° 240° 12 kt METAR LFRS 221330Z AUTO 24012KT 200V260 9999 BKN028 BKN033 OVC041 21/16 Q1022 TEMPO BKN013
15:00
M
21 °C 10 km+ 2.300 ft 230° 230° 9 kt METAR LFRS 221300Z AUTO 23009KT 200V270 9999 BKN023 OVC028 21/16 Q1022 TEMPO BKN013
14:30
M
20 °C 10 km+ 1.900 ft 230° 230° 10 kt METAR LFRS 221230Z AUTO 23010KT 190V250 9999 BKN019 OVC024 20/16 Q1022 TEMPO BKN013
14:00
M
19 °C 10 km+ 1.800 ft 250° 250° 9 kt METAR LFRS 221200Z AUTO 25009KT 220V290 9999 OVC018 19/16 Q1022 TEMPO BKN013
13:30
M
20 °C 10 km+ 2.100 ft 250° 250° 10 kt METAR LFRS 221130Z AUTO 25010KT 220V280 9999 BKN021 BKN027 OVC039 20/16 Q1021 TEMPO BKN013
13:00
M
20 °C 10 km+ 1.900 ft 240° 240° 8 kt METAR LFRS 221100Z AUTO 24008KT 200V280 9999 OVC019 20/16 Q1021 TEMPO BKN014
12:30
M
20 °C 10 km+ 2.200 ft 260° 260° 8 kt METAR LFRS 221030Z AUTO 26008KT 230V290 9999 BKN022 OVC029 20/15 Q1021 TEMPO BKN014
12:00
M
20 °C 10 km+ 2.500 ft 260° 260° 9 kt METAR LFRS 221000Z AUTO 26009KT 9999 OVC025 20/15 Q1021 TEMPO BKN014
11:30
M
20 °C 10 km+ 2.600 ft 260° 260° 10 kt METAR LFRS 220930Z AUTO 26010KT 9999 OVC026 20/15 Q1021 TEMPO BKN014
11:00
M
20 °C 10 km+ 2.000 ft 240° 240° 7 kt METAR LFRS 220900Z AUTO 24007KT 190V280 9999 BKN020 BKN027 OVC032 20/15 Q1021 TEMPO BKN014
10:30
M
19 °C 10 km+ 2.300 ft 240° 240° 8 kt METAR LFRS 220830Z AUTO 24008KT 9999 BKN023 OVC030 19/15 Q1021 TEMPO BKN014
Segnala modifiche